Bachir Chihani — 7TJA — position and weather

sailwx.info

Track history (hours):
 
Tides and Currents Weather Stations Pressure Air Temp Water Temp Dewpoint Dewpoint Depression Visibility Wind Speed Wind Dir Waves Ship Positions

Bachir Chihani

Last reported at 2016-Feb-09 04:33 UTC. Time now 2016-Feb-12 18:14 UTC.
Position N 36°40' E 000°57'.

Length 280 m; draft 9.6 m.

Type: Ship (hazmat cat C). MMSI: 605106010.

Date/timePositionNaut miles runAvg speedWind from/ knotsBaromVisibWave heightAir tempDewpointWater temp
2016-Feb-09 04:33N 36°40' E 000°57'9 8.3
2016-Feb-09 03:28N 36°36' E 000°48'  
2016-Feb-06 17:33N 36°44' E 001°27'3510.9
2016-Feb-06 14:21N 36°50' E 002°10'54512.6
2016-Feb-04 19:04N 36°40' E 013°30'912.3
2016-Feb-04 18:23N 36°37' E 013°41'1011.8
2016-Feb-04 17:33N 36°35' E 013°52'1312.4
2016-Feb-04 16:33N 36°33' E 014°08'1212.5
2016-Feb-04 15:34N 36°30' E 014°23'1312.4
2016-Feb-04 14:33N 36°28' E 014°38'41413.3
2016-Feb-03 07:24N 36°05' E 023°11'2312.3
2016-Feb-03 05:33N 36°21' E 023°31'7413.9
2016-Feb-03 00:12N 37°09' E 024°42'913.7
2016-Feb-02 23:34N 37°13' E 024°52'1413.6
2016-Feb-02 22:34N 37°17' E 025°08'1414.3
2016-Feb-02 21:33N 37°19' E 025°26'1413.9
2016-Feb-02 20:33N 37°21' E 025°43'1414.3
2016-Feb-02 19:33N 37°35' E 025°44'1313.5
2016-Feb-02 18:34N 37°49' E 025°44'12313.6
2016-Feb-02 09:33N 39°51' E 025°47'  
2016-Jan-30 17:05N 37°49' E 025°44'814.7
2016-Jan-30 16:34N 37°41' E 025°44'1414.3
2016-Jan-30 15:33N 37°27' E 025°43'1010.1
2016-Jan-30 14:33N 37°20' E 025°35'1413.6
2016-Jan-30 13:33N 37°18' E 025°18'1413.8
2016-Jan-30 12:33N 37°16' E 025°01'1413.8
2016-Jan-30 11:33N 37°10' E 024°45'  
Track history (hours):
 
Tides and Currents Weather Stations Pressure Air Temp Water Temp Dewpoint Dewpoint Depression Visibility Wind Speed Wind Dir Waves Ship Positions

Bachir Chihani

Last reported at 2016-Feb-09 04:33 UTC. Time now 2016-Feb-12 18:14 UTC.
Position N 36°40' E 000°57'.

Length 280 m; draft 9.6 m.

Type: Ship (hazmat cat C). MMSI: 605106010.

Date/timePositionNaut miles runAvg speedWind from/ knotsBaromVisibWave heightAir tempDewpointWater temp
2016-Feb-09 04:33N 36°40' E 000°57'9 8.3
2016-Feb-09 03:28N 36°36' E 000°48'  
2016-Feb-06 17:33N 36°44' E 001°27'3510.9
2016-Feb-06 14:21N 36°50' E 002°10'54512.6
2016-Feb-04 19:04N 36°40' E 013°30'912.3
2016-Feb-04 18:23N 36°37' E 013°41'1011.8
2016-Feb-04 17:33N 36°35' E 013°52'1312.4
2016-Feb-04 16:33N 36°33' E 014°08'1212.5
2016-Feb-04 15:34N 36°30' E 014°23'1312.4
2016-Feb-04 14:33N 36°28' E 014°38'41413.3
2016-Feb-03 07:24N 36°05' E 023°11'2312.3
2016-Feb-03 05:33N 36°21' E 023°31'7413.9
2016-Feb-03 00:12N 37°09' E 024°42'913.7
2016-Feb-02 23:34N 37°13' E 024°52'1413.6
2016-Feb-02 22:34N 37°17' E 025°08'1414.3
2016-Feb-02 21:33N 37°19' E 025°26'1413.9
2016-Feb-02 20:33N 37°21' E 025°43'1414.3
2016-Feb-02 19:33N 37°35' E 025°44'1313.5
2016-Feb-02 18:34N 37°49' E 025°44'12313.6
2016-Feb-02 09:33N 39°51' E 025°47'  
2016-Jan-30 17:05N 37°49' E 025°44'814.7
2016-Jan-30 16:34N 37°41' E 025°44'1414.3
2016-Jan-30 15:33N 37°27' E 025°43'1010.1
2016-Jan-30 14:33N 37°20' E 025°35'1413.6
2016-Jan-30 13:33N 37°18' E 025°18'1413.8
2016-Jan-30 12:33N 37°16' E 025°01'1413.8
2016-Jan-30 11:33N 37°10' E 024°45'  

Dump ship's entire track history